This is the latest recevied weather packets stored in our database for station/object IZ8QAD-11. If no packets are shown the sender has not sent any weather packets the latest 10 day(s).
| Time | Temp. | Humidity | Pressure | Rain* | Wind** | Luminosity | Snow |
|---|---|---|---|---|---|---|---|
| 1777992228 | 21.67° C | 40% | 969.3 hPa | - | - | - | - |
| 1777988627 | 22.22° C | 40% | 969.5 hPa | - | - | - | - |
| 1777985026 | 22.78° C | 42% | 969.9 hPa | - | - | - | - |
| 1777981425 | 27.22° C | 42% | 970.2 hPa | - | - | - | - |
| 1777977825 | 21.11° C | 47% | 970.4 hPa | - | - | - | - |
| 1777974224 | 23.33° C | 46% | 970.4 hPa | - | - | - | - |
| 1777970623 | 20.56° C | 50% | 970.2 hPa | - | - | - | - |
| 1777967022 | 20° C | 50% | 970.4 hPa | - | - | - | - |
| 1777963421 | 18.89° C | 50% | 970 hPa | - | - | - | - |
| 1777956220 | 15° C | 52% | 969.7 hPa | - | - | - | - |
| 1777952619 | 13.33° C | 55% | 969.6 hPa | - | - | - | - |
| 1777949018 | 12.78° C | 55% | 969.9 hPa | - | - | - | - |
| 1777945418 | 12.78° C | 56% | 970.2 hPa | - | - | - | - |
| 1777941817 | 12.22° C | 56% | 970.9 hPa | - | - | - | - |
| 1777938216 | 12.78° C | 55% | 970.9 hPa | - | - | - | - |
| 1777934615 | 12.78° C | 57% | 971.2 hPa | - | - | - | - |
| 1777931014 | 13.33° C | 52% | 971.6 hPa | - | - | - | - |
| 1777927413 | 14.44° C | 49% | 971.5 hPa | - | - | - | - |
| 1777923812 | 15.56° C | 47% | 971.4 hPa | - | - | - | - |
| 1777920212 | 17.22° C | 46% | 971.2 hPa | - | - | - | - |
| 1777916611 | 18.89° C | 45% | 970.8 hPa | - | - | - | - |
| 1777913010 | 20° C | 45% | 970.7 hPa | - | - | - | - |
| 1777909409 | 22.78° C | 40% | 970.7 hPa | - | - | - | - |
| 1777905808 | 25.56° C | 38% | 970.7 hPa | - | - | - | - |
| 1777902208 | 30° C | 35% | 971.2 hPa | - | - | - | - |
* Rain since midnight (hover to see other rain measurements)
** Current wind speed in m/s (hover to see current wind gust speed)